Time;durP1;ratioP1;P1;durP2;ratioP2;P2;SDS_P1;SDS_P2;PMS_P1;PMS_P2;Temp;Humidity;BMP_temperature;BMP_pressure;BME280_temperature;BME280_humidity;BME280_pressure;Samples;Min_cycle;Max_cycle;Signal;HPM_P1;HPM_P2
2024/03/23 00:00:39;;;;;;;7.82;4.47;;;13.10;79.30;;;;;;4957443;28;20035;-41
2024/03/23 00:03:06;;;;;;;9.05;5.00;;;13.10;79.30;;;;;;4974268;28;20031;-40
2024/03/23 00:05:32;;;;;;;9.98;4.82;;;13.10;79.30;;;;;;4969343;28;20580;-40
2024/03/23 00:07:59;;;;;;;8.27;4.65;;;13.10;79.30;;;;;;4975623;28;20050;-39
2024/03/23 00:10:26;;;;;;;10.25;4.90;;;13.10;79.30;;;;;;4977173;28;20031;-40
2024/03/23 00:12:52;;;;;;;9.27;4.80;;;13.10;79.30;;;;;;4984011;28;20029;-39
2024/03/23 00:15:19;;;;;;;8.48;4.85;;;13.10;79.30;;;;;;4979412;28;20030;-39
2024/03/23 00:17:46;;;;;;;8.65;4.53;;;13.00;79.30;;;;;;4974445;28;20062;-40
2024/03/23 00:20:12;;;;;;;8.63;4.63;;;13.00;79.30;;;;;;4973196;28;20035;-39
2024/03/23 00:22:39;;;;;;;7.97;4.63;;;13.00;79.30;;;;;;4978028;28;20031;-40
2024/03/23 00:25:06;;;;;;;8.48;4.60;;;13.00;79.30;;;;;;4958894;28;20087;-40
2024/03/23 00:27:32;;;;;;;7.68;4.68;;;13.00;80.00;;;;;;4977052;28;20038;-39
2024/03/23 00:29:59;;;;;;;9.45;4.72;;;13.00;79.30;;;;;;4979006;28;20027;-40
2024/03/23 00:32:25;;;;;;;8.35;4.72;;;13.00;79.30;;;;;;4978958;28;20027;-40
2024/03/23 00:34:52;;;;;;;8.98;4.78;;;13.00;79.30;;;;;;4945171;28;20044;-39
2024/03/23 00:37:19;;;;;;;10.07;4.85;;;13.00;79.30;;;;;;4974104;28;20114;-38
2024/03/23 00:39:45;;;;;;;8.00;4.80;;;12.90;79.30;;;;;;4975257;28;20051;-39
2024/03/23 00:42:12;;;;;;;8.88;4.55;;;12.90;79.30;;;;;;4973898;28;20380;-40
2024/03/23 00:44:38;;;;;;;7.63;4.78;;;12.90;79.30;;;;;;4971345;28;20046;-41
2024/03/23 00:47:05;;;;;;;9.10;4.53;;;12.90;79.30;;;;;;4974513;28;20435;-39
2024/03/23 00:49:32;;;;;;;8.52;4.38;;;12.90;79.30;;;;;;4969679;28;20626;-40
2024/03/23 00:51:58;;;;;;;8.07;4.70;;;12.90;79.30;;;;;;4977329;28;20670;-39
2024/03/23 00:54:23;;;;;;;9.20;4.68;;;12.90;79.30;;;;;;4966248;28;20050;-39
2024/03/23 00:56:49;;;;;;;7.88;4.28;;;12.80;79.30;;;;;;4976768;28;20030;-39
2024/03/23 00:59:15;;;;;;;7.63;4.30;;;12.80;79.30;;;;;;4980873;28;20054;-39
2024/03/23 01:01:40;;;;;;;6.63;4.45;;;12.80;79.30;;;;;;4978106;28;20400;-39
2024/03/23 01:04:06;;;;;;;7.13;4.20;;;12.80;79.30;;;;;;4977601;28;20113;-39
2024/03/23 01:06:32;;;;;;;8.07;4.22;;;12.80;79.30;;;;;;4974356;28;20030;-39
2024/03/23 01:08:57;;;;;;;6.68;4.10;;;12.80;79.30;;;;;;4969250;28;20019;-38
2024/03/23 01:11:23;;;;;;;7.13;4.15;;;12.80;79.30;;;;;;4978650;28;20030;-36
2024/03/23 01:13:49;;;;;;;7.55;4.10;;;12.70;79.30;;;;;;4976222;28;20043;-37
2024/03/23 01:16:14;;;;;;;7.82;4.18;;;12.80;79.30;;;;;;4962901;28;20081;-35
2024/03/23 01:18:40;;;;;;;7.88;3.83;;;12.80;79.30;;;;;;4969315;28;20039;-35
2024/03/23 01:21:06;;;;;;;7.07;4.47;;;12.70;79.30;;;;;;4978450;28;20099;-33
2024/03/23 01:23:31;;;;;;;6.47;3.83;;;12.70;79.30;;;;;;4971254;28;20112;-37
2024/03/23 01:25:57;;;;;;;9.10;4.43;;;12.70;79.30;;;;;;4974365;28;20117;-34
2024/03/23 01:28:23;;;;;;;7.07;4.18;;;12.70;79.30;;;;;;4976494;28;20102;-33
2024/03/23 01:30:49;;;;;;;6.63;4.13;;;12.70;79.30;;;;;;4975295;28;20070;-36
2024/03/23 01:33:15;;;;;;;7.13;3.83;;;12.70;79.30;;;;;;4967735;28;20141;-37
2024/03/23 01:35:41;;;;;;;6.72;3.90;;;12.70;79.90;;;;;;4977204;28;20031;-37
2024/03/23 01:38:06;;;;;;;6.15;3.75;;;12.60;79.20;;;;;;4971637;28;20041;-37
2024/03/23 01:40:32;;;;;;;7.57;4.18;;;12.60;79.20;;;;;;4979063;28;20055;-36
2024/03/23 01:43:02;;;;;;;8.05;4.15;;;12.60;79.20;;;;;;4962973;28;20019;-35
2024/03/23 01:45:28;;;;;;;7.40;3.97;;;12.60;79.30;;;;;;4972675;28;20069;-35
2024/03/23 01:47:54;;;;;;;8.35;4.07;;;12.60;79.30;;;;;;4978485;28;20577;-37
2024/03/23 01:50:21;;;;;;;7.70;4.30;;;12.60;79.30;;;;;;4972822;28;20031;-34
2024/03/23 01:52:48;;;;;;;7.85;4.20;;;12.60;79.30;;;;;;4978180;28;20031;-37
2024/03/23 01:55:13;;;;;;;8.10;3.78;;;12.60;79.30;;;;;;4972162;28;20051;-36
2024/03/23 01:57:39;;;;;;;7.70;4.05;;;12.60;79.30;;;;;;4957327;28;20074;-33
2024/03/23 02:00:06;;;;;;;7.22;4.03;;;12.50;79.20;;;;;;4963906;28;20039;-36
2024/03/23 02:02:47;;;;;;;5.90;3.90;;;12.50;79.20;;;;;;4980893;28;20042;-37
2024/03/23 02:05:13;;;;;;;7.88;3.80;;;12.60;79.30;;;;;;4976902;28;20042;-41
2024/03/23 02:07:40;;;;;;;6.78;3.63;;;12.50;79.20;;;;;;4976066;28;20023;-35
2024/03/23 02:10:10;;;;;;;5.50;3.53;;;12.50;79.30;;;;;;4968466;28;20027;-39
2024/03/23 02:12:36;;;;;;;7.20;3.95;;;12.50;79.30;;;;;;4978796;28;20463;-35
2024/03/23 02:15:02;;;;;;;8.05;4.05;;;12.40;79.20;;;;;;4963270;28;20094;-35
2024/03/23 02:17:30;;;;;;;6.68;3.50;;;12.40;79.20;;;;;;4973457;28;20105;-34
2024/03/23 02:19:56;;;;;;;6.85;3.70;;;12.40;79.20;;;;;;4969796;28;20034;-38
2024/03/23 02:22:22;;;;;;;7.70;3.72;;;12.50;79.30;;;;;;4972280;28;20540;-37
2024/03/23 02:24:47;;;;;;;5.97;3.95;;;12.40;79.30;;;;;;4978646;28;20035;-36
2024/03/23 02:27:14;;;;;;;5.45;3.60;;;12.40;79.30;;;;;;4974448;28;20016;-39
2024/03/23 02:29:40;;;;;;;6.70;3.67;;;12.40;79.20;;;;;;4966624;28;20046;-36
2024/03/23 02:32:06;;;;;;;8.13;3.85;;;12.40;79.30;;;;;;4991509;28;20057;-36
2024/03/23 02:34:31;;;;;;;6.82;3.75;;;12.30;79.20;;;;;;4977059;28;20018;-38
2024/03/23 02:36:57;;;;;;;6.63;3.97;;;12.40;79.30;;;;;;4972723;28;20031;-34
2024/03/23 02:39:23;;;;;;;6.05;3.72;;;12.30;79.20;;;;;;4975925;28;20117;-37
2024/03/23 02:41:49;;;;;;;6.82;3.95;;;12.30;79.20;;;;;;4973939;28;20062;-38
2024/03/23 02:44:14;;;;;;;6.78;3.83;;;12.30;79.20;;;;;;4974276;28;20022;-34
2024/03/23 02:46:40;;;;;;;7.07;3.83;;;12.30;79.20;;;;;;4972402;28;20038;-33
2024/03/23 02:49:07;;;;;;;5.78;3.90;;;12.30;79.20;;;;;;4966462;28;20041;-35
2024/03/23 02:51:33;;;;;;;6.82;3.58;;;12.30;79.90;;;;;;4978863;28;20517;-35
2024/03/23 02:53:59;;;;;;;8.48;4.00;;;12.30;79.20;;;;;;4976347;28;20042;-35
2024/03/23 02:56:24;;;;;;;6.72;3.83;;;12.30;79.30;;;;;;4974121;28;20479;-35
2024/03/23 02:58:50;;;;;;;6.65;4.18;;;12.30;79.20;;;;;;4978738;28;20027;-35
2024/03/23 03:01:16;;;;;;;7.03;3.70;;;12.20;79.20;;;;;;4984386;28;20078;-38
2024/03/23 03:03:42;;;;;;;7.00;3.85;;;12.20;79.20;;;;;;4969949;28;20091;-35
2024/03/23 03:06:08;;;;;;;6.88;4.00;;;12.20;79.20;;;;;;4969223;28;20234;-37
2024/03/23 03:08:33;;;;;;;7.03;3.63;;;12.20;79.20;;;;;;4974176;28;20085;-38
2024/03/23 03:10:59;;;;;;;6.68;3.95;;;12.20;79.20;;;;;;4954366;28;20495;-38
2024/03/23 03:13:25;;;;;;;7.32;3.90;;;12.20;79.20;;;;;;4978490;28;20049;-35
2024/03/23 03:15:51;;;;;;;7.57;4.22;;;12.20;79.30;;;;;;4978843;28;20030;-38
2024/03/23 03:18:16;;;;;;;8.02;4.47;;;12.10;79.30;;;;;;4980524;28;20037;-37
2024/03/23 03:20:42;;;;;;;8.95;4.40;;;12.20;79.20;;;;;;4980447;28;20022;-34
2024/03/23 03:23:08;;;;;;;7.85;4.28;;;12.10;79.20;;;;;;4956289;28;20050;-37
2024/03/23 03:25:34;;;;;;;7.13;4.30;;;12.10;79.20;;;;;;4978531;28;20441;-37
2024/03/23 03:27:59;;;;;;;6.85;4.13;;;12.10;79.20;;;;;;4976676;28;20046;-35
2024/03/23 03:30:25;;;;;;;8.57;5.05;;;12.10;79.20;;;;;;4976175;28;20561;-34
2024/03/23 03:32:54;;;;;;;7.30;4.25;;;12.10;79.20;;;;;;4978735;28;20034;-35
2024/03/23 03:35:20;;;;;;;10.57;4.90;;;12.10;79.20;;;;;;4970110;28;20525;-36
2024/03/23 03:37:45;;;;;;;8.05;4.75;;;12.00;79.20;;;;;;4981682;28;20027;-33
2024/03/23 03:40:12;;;;;;;8.18;5.13;;;12.10;79.20;;;;;;4972250;28;20031;-33
2024/03/23 03:42:38;;;;;;;7.90;5.38;;;12.00;79.20;;;;;;4978137;28;20061;-37
2024/03/23 03:45:04;;;;;;;7.43;4.60;;;12.00;79.20;;;;;;4970485;28;20058;-33
2024/03/23 03:47:30;;;;;;;10.10;5.13;;;12.00;79.20;;;;;;4976861;28;20024;-36
2024/03/23 03:49:56;;;;;;;8.25;4.65;;;12.00;79.20;;;;;;4978504;28;20506;-34
2024/03/23 03:52:22;;;;;;;8.65;5.47;;;12.00;79.20;;;;;;4980110;28;20023;-39
2024/03/23 03:54:47;;;;;;;8.57;5.18;;;12.00;79.20;;;;;;4977321;28;20046;-38
2024/03/23 03:57:13;;;;;;;13.00;5.53;;;11.90;79.10;;;;;;4980009;28;20037;-34
2024/03/23 03:59:39;;;;;;;12.05;5.40;;;11.90;79.10;;;;;;4976828;28;20047;-38
2024/03/23 04:02:05;;;;;;;8.30;5.50;;;11.90;79.10;;;;;;4974140;28;20020;-38
2024/03/23 04:04:31;;;;;;;9.57;5.75;;;11.90;79.20;;;;;;4968872;28;20054;-36
2024/03/23 04:07:02;;;;;;;9.20;5.38;;;11.90;79.20;;;;;;4974130;28;20459;-38
2024/03/23 04:09:30;;;;;;;9.50;5.65;;;11.90;79.20;;;;;;4977150;28;20063;-36
2024/03/23 04:11:55;;;;;;;10.85;6.05;;;11.80;79.80;;;;;;4980397;28;20054;-31
2024/03/23 04:14:21;;;;;;;11.40;5.50;;;11.90;79.20;;;;;;4977123;28;20035;-35
2024/03/23 04:16:47;;;;;;;9.68;5.90;;;11.90;79.20;;;;;;4972458;28;20118;-33
2024/03/23 04:19:12;;;;;;;12.30;6.07;;;11.80;79.10;;;;;;4980697;28;20035;-38
2024/03/23 04:21:38;;;;;;;9.40;5.93;;;11.80;79.10;;;;;;4974479;28;20097;-35
2024/03/23 04:24:05;;;;;;;9.52;5.90;;;11.80;79.10;;;;;;4973397;28;20031;-38
2024/03/23 04:26:39;;;;;;;8.48;5.18;;;11.80;79.20;;;;;;4975939;28;20090;-34
2024/03/23 04:29:05;;;;;;;;;;;11.80;79.20;;;;;;4967292;28;20027;-38
2024/03/23 04:31:32;;;;;;;8.38;4.88;;;11.70;79.10;;;;;;4981488;28;19937;-40
2024/03/23 04:33:57;;;;;;;8.02;5.25;;;11.70;79.10;;;;;;4971257;28;20514;-43
2024/03/23 04:36:23;;;;;;;9.50;5.60;;;11.70;79.40;;;;;;4960625;28;20026;-39
2024/03/23 04:38:50;;;;;;;8.35;5.90;;;11.70;79.20;;;;;;4973659;28;20399;-39
2024/03/23 04:41:15;;;;;;;8.20;5.00;;;11.70;79.20;;;;;;4974655;28;20054;-40
2024/03/23 04:43:41;;;;;;;9.93;5.50;;;11.60;79.10;;;;;;4967624;28;20419;-41
2024/03/23 04:46:07;;;;;;;10.05;5.03;;;11.60;79.10;;;;;;4945581;28;20027;-40
2024/03/23 04:48:32;;;;;;;8.40;5.55;;;11.60;79.10;;;;;;4976022;28;20033;-39
2024/03/23 04:50:58;;;;;;;9.98;5.25;;;11.60;79.20;;;;;;4973876;28;20435;-40
2024/03/23 04:53:28;;;;;;;10.02;5.60;;;11.60;79.10;;;;;;4978353;28;20037;-39
2024/03/23 04:55:55;;;;;;;9.27;5.45;;;11.60;79.20;;;;;;4980207;28;20026;-40
2024/03/23 04:58:23;;;;;;;7.25;4.95;;;11.60;79.20;;;;;;4969506;28;20031;-37
2024/03/23 05:00:56;;;;;;;9.98;5.97;;;11.60;79.20;;;;;;4980101;28;20022;-38
2024/03/23 05:03:22;;;;;;;8.55;5.47;;;11.50;79.10;;;;;;4978368;28;20030;-35
2024/03/23 05:05:48;;;;;;;7.13;4.65;;;11.50;79.10;;;;;;4971746;28;20047;-40
2024/03/23 05:08:15;;;;;;;9.02;4.85;;;11.50;79.10;;;;;;4973396;28;20574;-36
2024/03/23 05:10:42;;;;;;;8.70;5.07;;;11.50;79.10;;;;;;4975129;28;20030;-38
2024/03/23 05:13:08;;;;;;;9.68;4.95;;;11.50;79.10;;;;;;4985147;28;20446;-36
2024/03/23 05:15:34;;;;;;;8.68;5.30;;;11.50;79.10;;;;;;4968840;28;20110;-37
2024/03/23 05:17:59;;;;;;;7.50;4.32;;;11.40;79.10;;;;;;4975609;28;20058;-36
2024/03/23 05:20:25;;;;;;;8.93;4.68;;;11.40;79.10;;;;;;4967528;28;20094;-36
2024/03/23 05:22:51;;;;;;;9.85;4.40;;;11.40;79.10;;;;;;4977833;28;20050;-36
2024/03/23 05:25:16;;;;;;;9.25;4.00;;;11.30;79.00;;;;;;4972384;28;20038;-37
2024/03/23 05:27:42;;;;;;;8.20;4.55;;;11.30;79.00;;;;;;4974533;28;20071;-37
2024/03/23 05:30:09;;;;;;;7.88;3.92;;;11.30;79.10;;;;;;4975828;28;20158;-34
2024/03/23 05:32:35;;;;;;;8.27;4.22;;;11.30;79.20;;;;;;4974839;28;20015;-37
2024/03/23 05:35:01;;;;;;;6.18;3.70;;;11.30;79.10;;;;;;4968022;28;20554;-34
2024/03/23 05:37:26;;;;;;;6.70;3.72;;;11.30;79.10;;;;;;4971009;28;20049;-37
2024/03/23 05:39:52;;;;;;;7.35;4.00;;;11.20;79.10;;;;;;4969452;28;20039;-38
2024/03/23 05:42:18;;;;;;;8.48;4.45;;;11.20;79.10;;;;;;4976107;28;20023;-34
2024/03/23 05:44:47;;;;;;;6.20;3.58;;;11.20;79.20;;;;;;4978147;28;20114;-38
2024/03/23 05:47:16;;;;;;;6.93;3.65;;;11.10;79.20;;;;;;4977383;28;20030;-39
2024/03/23 05:49:43;;;;;;;6.00;3.75;;;11.10;79.20;;;;;;4977020;28;20082;-35
2024/03/23 05:52:09;;;;;;;6.05;3.78;;;11.10;79.20;;;;;;4974532;28;20085;-38
2024/03/23 05:54:35;;;;;;;8.05;4.10;;;11.10;79.90;;;;;;4966810;28;20411;-35
2024/03/23 05:57:02;;;;;;;8.25;4.10;;;11.10;79.30;;;;;;4972231;28;20023;-35
2024/03/23 05:59:27;;;;;;;7.40;3.95;;;11.00;79.20;;;;;;4978658;28;20042;-35
2024/03/23 06:01:53;;;;;;;6.57;3.97;;;11.00;79.20;;;;;;4974589;28;20031;-36
2024/03/23 06:04:19;;;;;;;7.30;3.70;;;11.00;79.20;;;;;;4969235;28;20033;-34
2024/03/23 06:06:45;;;;;;;6.93;3.63;;;11.00;79.30;;;;;;4974082;28;20054;-36
2024/03/23 06:09:11;;;;;;;7.55;4.25;;;11.00;79.20;;;;;;4977475;28;20027;-36
2024/03/23 06:11:37;;;;;;;7.03;3.80;;;10.90;79.20;;;;;;4972363;28;20042;-35
2024/03/23 06:14:03;;;;;;;7.22;4.15;;;11.00;79.30;;;;;;4954292;28;20070;-34
2024/03/23 06:16:30;;;;;;;5.85;3.63;;;10.90;79.30;;;;;;4972099;28;20019;-34
2024/03/23 06:18:56;;;;;;;7.38;3.88;;;10.90;79.20;;;;;;4967006;28;20039;-39
2024/03/23 06:21:23;;;;;;;5.90;3.75;;;10.90;79.20;;;;;;4981329;28;20031;-35
2024/03/23 06:23:52;;;;;;;7.45;3.88;;;10.80;79.20;;;;;;4964977;28;20094;-33
2024/03/23 06:26:19;;;;;;;6.20;3.70;;;10.80;79.20;;;;;;4987655;28;20399;-37
2024/03/23 06:28:46;;;;;;;5.97;3.67;;;10.90;79.30;;;;;;4962162;28;20033;-36
2024/03/23 06:31:12;;;;;;;7.68;4.18;;;10.80;79.30;;;;;;4966812;28;20035;-36
2024/03/23 06:33:38;;;;;;;4.97;3.33;;;10.80;79.30;;;;;;4973613;28;20043;-38
2024/03/23 06:36:05;;;;;;;6.22;3.50;;;10.80;79.90;;;;;;4975127;28;20023;-39
2024/03/23 06:38:31;;;;;;;7.00;3.75;;;10.80;79.30;;;;;;4982580;28;20043;-37
2024/03/23 06:40:57;;;;;;;7.35;3.90;;;10.70;79.30;;;;;;4978564;28;20160;-38
2024/03/23 06:43:23;;;;;;;4.93;3.55;;;10.80;79.30;;;;;;4969405;28;20027;-37
2024/03/23 06:45:53;;;;;;;6.50;3.35;;;10.70;79.30;;;;;;4974332;28;20053;-40
2024/03/23 06:48:19;;;;;;;5.20;3.13;;;10.70;79.30;;;;;;4958726;28;20042;-39
2024/03/23 06:50:46;;;;;;;6.97;3.60;;;10.70;79.30;;;;;;4973732;28;20027;-39
2024/03/23 06:53:12;;;;;;;5.57;3.13;;;10.70;79.30;;;;;;4972763;28;20499;-39
2024/03/23 06:55:38;;;;;;;6.35;3.10;;;10.70;79.40;;;;;;4958982;28;20054;-40
2024/03/23 06:58:04;;;;;;;5.70;3.13;;;10.70;79.30;;;;;;4978003;28;20371;-39
2024/03/23 07:00:30;;;;;;;7.15;3.45;;;10.70;79.30;;;;;;4980355;28;20065;-39
2024/03/23 07:02:56;;;;;;;4.63;2.70;;;10.70;79.40;;;;;;4975070;28;20431;-40
2024/03/23 07:05:22;;;;;;;5.45;3.30;;;10.70;79.40;;;;;;4979772;28;20035;-40
2024/03/23 07:07:47;;;;;;;6.93;3.28;;;10.60;79.40;;;;;;4971979;28;20042;-35
2024/03/23 07:10:13;;;;;;;6.53;3.08;;;10.60;79.40;;;;;;4970854;28;20066;-36
2024/03/23 07:12:39;;;;;;;5.28;2.88;;;10.70;79.40;;;;;;4973766;28;20022;-35
2024/03/23 07:15:05;;;;;;;5.65;3.15;;;10.70;79.40;;;;;;4970677;28;20027;-36
2024/03/23 07:17:32;;;;;;;5.18;2.78;;;10.70;79.30;;;;;;4981997;28;20088;-36
2024/03/23 07:19:58;;;;;;;7.47;3.28;;;10.70;79.40;;;;;;4972996;28;20035;-36
2024/03/23 07:22:24;;;;;;;6.47;2.88;;;10.70;79.40;;;;;;4982544;28;20074;-37
2024/03/23 07:24:49;;;;;;;6.45;3.00;;;10.70;79.40;;;;;;4972024;28;20047;-38
2024/03/23 07:27:15;;;;;;;6.88;2.95;;;10.70;79.40;;;;;;4971737;28;20038;-38
2024/03/23 07:29:41;;;;;;;5.50;2.78;;;10.70;79.40;;;;;;4976866;28;20086;-36
2024/03/23 07:32:07;;;;;;;5.07;2.90;;;10.70;79.40;;;;;;4975312;28;20033;-35
2024/03/23 07:34:32;;;;;;;5.50;3.00;;;10.70;79.40;;;;;;4978808;28;20022;-37
2024/03/23 07:36:58;;;;;;;6.95;3.20;;;10.70;79.40;;;;;;4980446;28;20030;-34
2024/03/23 07:39:24;;;;;;;5.25;3.13;;;10.70;79.40;;;;;;4975621;28;20039;-37
2024/03/23 07:41:50;;;;;;;7.45;3.33;;;10.70;79.40;;;;;;4980921;28;20046;-36
2024/03/23 07:44:16;;;;;;;5.10;2.88;;;10.70;79.40;;;;;;4981986;28;20035;-36
2024/03/23 07:46:41;;;;;;;5.90;2.65;;;10.70;79.50;;;;;;4980162;28;20026;-38
2024/03/23 07:49:07;;;;;;;5.10;3.10;;;10.70;79.50;;;;;;4974059;28;20057;-34
2024/03/23 07:51:34;;;;;;;4.65;2.65;;;10.70;79.50;;;;;;4979187;28;20486;-36
2024/03/23 07:54:00;;;;;;;4.53;2.60;;;10.70;79.40;;;;;;4974789;28;20054;-41
2024/03/23 07:56:26;;;;;;;4.63;2.85;;;10.70;79.40;;;;;;4982513;28;20022;-41
2024/03/23 07:58:51;;;;;;;5.40;2.88;;;10.70;79.40;;;;;;4981606;28;20047;-41
2024/03/23 08:01:17;;;;;;;5.07;2.65;;;10.70;79.40;;;;;;4963813;28;20078;-41
2024/03/23 08:03:45;;;;;;;4.80;2.63;;;10.70;79.40;;;;;;4974229;28;20023;-42
2024/03/23 08:06:23;;;;;;;6.22;2.65;;;10.70;79.40;;;;;;4968275;28;20062;-41
2024/03/23 08:09:02;;;;;;;5.78;2.88;;;10.70;79.30;;;;;;4981979;28;20027;-36
2024/03/23 08:11:32;;;;;;;6.22;2.63;;;10.80;79.40;;;;;;4986495;28;20040;-35
2024/03/23 08:13:58;;;;;;;5.18;2.60;;;10.70;79.40;;;;;;4969624;28;20031;-37
2024/03/23 08:16:24;;;;;;;5.88;2.47;;;10.70;79.40;;;;;;4976062;28;20077;-36
2024/03/23 08:18:53;;;;;;;6.68;3.03;;;10.70;79.40;;;;;;4972573;28;20082;-37
2024/03/23 08:21:19;;;;;;;5.05;2.70;;;10.70;79.40;;;;;;4983221;28;20038;-37
2024/03/23 08:23:44;;;;;;;5.13;2.60;;;10.70;79.30;;;;;;4980432;28;20047;-36
2024/03/23 08:26:12;;;;;;;5.13;2.65;;;10.70;79.30;;;;;;4980957;28;20034;-41
2024/03/23 08:28:38;;;;;;;8.07;2.95;;;10.70;79.40;;;;;;4975741;28;20019;-37
2024/03/23 08:31:06;;;;;;;5.28;2.70;;;10.70;79.40;;;;;;4976592;28;20058;-36
2024/03/23 08:33:32;;;;;;;5.68;3.10;;;10.80;79.50;;;;;;4977641;28;20038;-32
2024/03/23 08:36:05;;;;;;;5.13;2.83;;;10.80;79.40;;;;;;4977518;28;20117;-38
2024/03/23 08:38:31;;;;;;;5.82;2.78;;;10.80;79.40;;;;;;4979855;28;20059;-42
2024/03/23 08:40:58;;;;;;;6.00;2.70;;;10.80;79.40;;;;;;4963304;28;20544;-41
2024/03/23 08:43:25;;;;;;;4.43;2.65;;;10.80;79.40;;;;;;4977813;28;20504;-42
2024/03/23 08:45:51;;;;;;;5.43;2.80;;;10.90;79.50;;;;;;4971666;28;20014;-42
2024/03/23 08:48:20;;;;;;;5.70;2.80;;;10.80;79.40;;;;;;4976147;28;20042;-43
2024/03/23 08:50:46;;;;;;;6.15;2.70;;;10.90;79.40;;;;;;4974342;28;20031;-38
2024/03/23 08:53:12;;;;;;;4.35;2.40;;;10.90;79.30;;;;;;4977016;28;20034;-41
2024/03/23 08:55:38;;;;;;;4.65;2.40;;;10.90;79.30;;;;;;4980950;28;20039;-41
2024/03/23 08:58:04;;;;;;;5.53;2.75;;;10.90;79.30;;;;;;4967549;28;20535;-41
2024/03/23 09:00:30;;;;;;;5.18;2.40;;;10.90;79.30;;;;;;4967123;28;20045;-41
2024/03/23 09:02:56;;;;;;;6.30;2.78;;;10.90;79.30;;;;;;4984849;28;20026;-36
2024/03/23 09:05:24;;;;;;;4.68;2.83;;;11.00;79.30;;;;;;4980951;28;20031;-35
2024/03/23 09:07:50;;;;;;;5.50;3.05;;;11.00;79.30;;;;;;4980640;28;20315;-34
2024/03/23 09:10:15;;;;;;;4.78;2.40;;;11.00;79.40;;;;;;4976540;28;20115;-36
2024/03/23 09:12:41;;;;;;;3.88;2.38;;;11.10;79.50;;;;;;4985891;28;20023;-37
2024/03/23 09:15:07;;;;;;;4.03;2.35;;;11.10;79.40;;;;;;4974716;28;20019;-36
2024/03/23 09:17:33;;;;;;;5.18;2.53;;;11.10;79.40;;;;;;4966616;28;20033;-35
2024/03/23 09:19:58;;;;;;;3.78;2.20;;;11.20;79.40;;;;;;4971580;28;20035;-37
2024/03/23 09:22:24;;;;;;;4.97;2.60;;;11.20;79.30;;;;;;4988731;28;20026;-36
2024/03/23 09:24:50;;;;;;;5.55;2.47;;;11.20;79.30;;;;;;4978781;28;20027;-37
2024/03/23 09:27:15;;;;;;;4.75;2.17;;;11.30;79.30;;;;;;4971559;28;20052;-35
2024/03/23 09:29:41;;;;;;;5.22;2.10;;;11.30;79.30;;;;;;4973773;28;20019;-36
2024/03/23 09:32:07;;;;;;;4.30;2.22;;;11.30;79.20;;;;;;4980136;28;20023;-39
2024/03/23 09:34:34;;;;;;;5.70;2.28;;;11.40;79.20;;;;;;4965459;28;20027;-33
2024/03/23 09:36:59;;;;;;;3.92;2.05;;;11.40;79.10;;;;;;4972104;28;20086;-34
2024/03/23 09:39:25;;;;;;;4.55;2.25;;;11.50;79.10;;;;;;4981896;28;20062;-36
2024/03/23 09:41:56;;;;;;;5.13;2.45;;;11.40;79.00;;;;;;4976451;28;20101;-39
2024/03/23 09:44:23;;;;;;;4.78;2.10;;;11.50;79.00;;;;;;4976214;28;20035;-35
2024/03/23 09:46:48;;;;;;;4.18;2.33;;;11.60;78.90;;;;;;4974288;28;20071;-36
2024/03/23 09:49:14;;;;;;;5.55;2.17;;;11.60;78.90;;;;;;4974616;28;20509;-38
2024/03/23 09:51:40;;;;;;;6.35;2.10;;;11.60;78.90;;;;;;4979767;28;20102;-37
2024/03/23 09:54:06;;;;;;;3.97;2.00;;;11.70;79.00;;;;;;4957143;28;20102;-35
2024/03/23 09:56:32;;;;;;;5.40;2.20;;;11.70;78.90;;;;;;4980240;28;20049;-39
2024/03/23 09:59:02;;;;;;;5.70;2.22;;;11.70;78.90;;;;;;4960138;28;20055;-37
2024/03/23 10:01:30;;;;;;;5.22;2.00;;;11.80;79.00;;;;;;4972143;28;20045;-40
2024/03/23 10:03:56;;;;;;;4.93;2.20;;;11.80;79.00;;;;;;4968784;28;20023;-38
2024/03/23 10:06:24;;;;;;;4.25;1.90;;;11.80;79.00;;;;;;4960348;28;20031;-39
2024/03/23 10:08:51;;;;;;;5.45;2.00;;;11.80;79.00;;;;;;4977915;28;20038;-37
2024/03/23 10:11:17;;;;;;;4.78;1.85;;;11.90;79.00;;;;;;4981569;28;20427;-36
2024/03/23 10:13:44;;;;;;;4.88;2.20;;;11.90;79.00;;;;;;4977753;28;20027;-40
2024/03/23 10:16:10;;;;;;;3.95;1.70;;;11.90;78.90;;;;;;4955690;28;20053;-41
2024/03/23 10:18:39;;;;;;;3.80;2.00;;;12.00;79.00;;;;;;4977876;28;20023;-41
2024/03/23 10:21:05;;;;;;;4.93;1.83;;;12.10;79.00;;;;;;4966142;28;20495;-39
2024/03/23 10:23:35;;;;;;;4.07;1.80;;;12.10;78.90;;;;;;4969755;28;20038;-41
2024/03/23 10:26:17;;;;;;;4.55;1.90;;;12.10;78.80;;;;;;4979873;28;20046;-38
2024/03/23 10:29:01;;;;;;;4.55;2.00;;;12.20;78.70;;;;;;4971851;28;20039;-40
2024/03/23 10:31:27;;;;;;;3.30;1.70;;;12.20;78.70;;;;;;4978875;28;20033;-40
2024/03/23 10:33:54;;;;;;;3.63;1.70;;;12.30;78.70;;;;;;4978723;28;20023;-38
2024/03/23 10:36:25;;;;;;;5.35;2.80;;;12.30;78.60;;;;;;4978757;28;20081;-40
2024/03/23 10:38:52;;;;;;;4.15;1.95;;;12.40;78.60;;;;;;4967871;28;20061;-39
2024/03/23 10:41:18;;;;;;;3.45;2.15;;;12.40;78.50;;;;;;4975494;28;20105;-37
2024/03/23 10:43:48;;;;;;;5.75;2.00;;;12.50;78.50;;;;;;4973896;28;20052;-40
2024/03/23 10:46:14;;;;;;;5.32;2.40;;;12.60;78.60;;;;;;4963318;28;20185;-41
2024/03/23 10:48:40;;;;;;;4.18;1.70;;;12.60;78.50;;;;;;4969398;28;20023;-38
2024/03/23 10:51:08;;;;;;;3.17;2.05;;;12.70;78.50;;;;;;4979248;28;20031;-40
2024/03/23 10:53:36;;;;;;;5.05;2.22;;;12.70;78.40;;;;;;4977323;28;20023;-39
2024/03/23 10:56:02;;;;;;;3.63;1.98;;;12.70;78.30;;;;;;4979811;28;20034;-36
2024/03/23 10:58:41;;;;;;;3.42;2.10;;;12.80;78.30;;;;;;4975651;28;20050;-40
2024/03/23 11:01:07;;;;;;;5.10;2.10;;;12.80;78.30;;;;;;4971312;28;20074;-40
2024/03/23 11:03:37;;;;;;;4.57;1.90;;;12.90;78.30;;;;;;4974093;28;20028;-37
2024/03/23 11:06:08;;;;;;;3.60;2.08;;;12.90;78.30;;;;;;4975326;28;20040;-41
2024/03/23 11:08:43;;;;;;;3.70;2.00;;;13.00;78.30;;;;;;4961152;28;20031;-40
2024/03/23 11:11:28;;;;;;;5.07;2.30;;;13.00;78.30;;;;;;4967261;28;20039;-40
2024/03/23 11:13:54;;;;;;;5.28;2.10;;;13.10;78.20;;;;;;4975688;28;20027;-38
2024/03/23 11:16:31;;;;;;;6.57;2.50;;;13.10;78.20;;;;;;4978430;28;20019;-41
2024/03/23 11:19:33;;;;;;;3.58;2.10;;;13.20;78.20;;;;;;4972024;28;20045;-42
2024/03/23 11:22:00;;;;;;;4.22;2.15;;;13.30;78.20;;;;;;4986255;28;20030;-40
2024/03/23 11:24:26;;;;;;;4.45;2.15;;;13.30;78.10;;;;;;4979306;28;20015;-39
2024/03/23 11:26:52;;;;;;;5.15;2.22;;;13.30;78.00;;;;;;4980601;28;20451;-38
2024/03/23 11:29:18;;;;;;;3.80;2.17;;;13.40;78.00;;;;;;4961499;28;20047;-40
2024/03/23 11:31:51;;;;;;;5.25;1.85;;;13.40;78.00;;;;;;4977982;28;20022;-40
2024/03/23 11:34:17;;;;;;;5.05;2.10;;;13.50;78.00;;;;;;4973143;28;20035;-39
2024/03/23 11:36:44;;;;;;;3.08;1.75;;;13.50;78.00;;;;;;4979659;28;20161;-39
2024/03/23 11:39:17;;;;;;;4.32;2.00;;;13.60;78.00;;;;;;4977257;28;20043;-38
2024/03/23 11:41:50;;;;;;;4.95;2.17;;;13.60;78.00;;;;;;4969195;28;20034;-37
2024/03/23 11:44:22;;;;;;;3.88;1.88;;;13.60;77.90;;;;;;4987693;28;20042;-40
2024/03/23 11:46:48;;;;;;;3.28;1.90;;;13.70;78.60;;;;;;4974766;28;20027;-39
2024/03/23 11:49:24;;;;;;;5.97;2.00;;;13.70;77.90;;;;;;4974273;28;20795;-38
2024/03/23 11:51:51;;;;;;;2.95;1.80;;;13.80;78.00;;;;;;4987817;28;20529;-40
2024/03/23 11:54:19;;;;;;;4.60;2.13;;;13.80;77.90;;;;;;4983398;28;20043;-39
2024/03/23 11:57:14;;;;;;;4.88;2.05;;;13.80;77.90;;;;;;4971615;28;20144;-40
2024/03/23 11:59:41;;;;;;;2.88;1.75;;;13.80;77.90;;;;;;4954858;28;20152;-39
2024/03/23 12:02:08;;;;;;;4.53;1.90;;;13.80;77.80;;;;;;4974023;28;20046;-39
2024/03/23 12:04:36;;;;;;;4.00;1.88;;;13.90;77.90;;;;;;4976756;28;20046;-40
2024/03/23 12:07:20;;;;;;;3.08;1.70;;;13.90;77.90;;;;;;4967597;28;20031;-38
2024/03/23 12:09:47;;;;;;;3.10;1.70;;;13.90;77.90;;;;;;4972875;28;20041;-39
2024/03/23 12:12:19;;;;;;;3.47;1.73;;;14.00;77.90;;;;;;4981130;28;20023;-40
2024/03/23 12:15:00;;;;;;;3.50;1.70;;;14.00;77.80;;;;;;4970138;28;20089;-40
2024/03/23 12:17:26;;;;;;;4.47;1.98;;;14.00;78.50;;;;;;4982646;28;20023;-41
2024/03/23 12:19:52;;;;;;;2.60;1.70;;;14.00;77.80;;;;;;4980623;28;20074;-39
2024/03/23 12:22:21;;;;;;;3.38;1.83;;;14.00;77.80;;;;;;4983365;28;20046;-39
2024/03/23 12:24:48;;;;;;;3.95;1.77;;;14.00;77.80;;;;;;4983775;28;20039;-38
2024/03/23 12:27:14;;;;;;;3.00;1.70;;;14.00;78.40;;;;;;4976324;28;20510;-40
2024/03/23 12:29:43;;;;;;;2.35;1.70;;;14.10;77.80;;;;;;4981443;28;20097;-36
2024/03/23 12:32:08;;;;;;;4.70;1.90;;;14.10;77.80;;;;;;4988302;28;20041;-40
2024/03/23 12:34:34;;;;;;;3.97;2.13;;;14.10;77.80;;;;;;4984590;28;20026;-34
2024/03/23 12:37:00;;;;;;;3.70;1.67;;;14.10;77.80;;;;;;4980609;28;20035;-40
2024/03/23 12:39:26;;;;;;;5.85;1.80;;;14.10;77.80;;;;;;4971276;28;20034;-37
2024/03/23 12:41:55;;;;;;;4.70;1.90;;;14.10;77.80;;;;;;4979841;28;20090;-37
2024/03/23 12:44:20;;;;;;;4.50;1.77;;;14.10;77.80;;;;;;4977193;28;20027;-36